Time;durP1;ratioP1;P1;durP2;ratioP2;P2;SDS_P1;SDS_P2;PMS_P1;PMS_P2;Temp;Humidity;BMP_temperature;BMP_pressure;BME280_temperature;BME280_humidity;BME280_pressure;Samples;Min_cycle;Max_cycle;Signal;HPM_P1;HPM_P2
2021/11/15 00:01:00;;;;;;;23.10;14.30;;;;;;;;;;5067112;28;20020;-65
2021/11/15 00:03:45;;;;;;;22.67;14.85;;;;;;;;;;5051819;28;20598;-64
2021/11/15 00:06:31;;;;;;;26.17;15.48;;;;;;;;;;5051889;28;20047;-64
2021/11/15 00:09:16;;;;;;;22.77;14.63;;;;;;;;;;5053045;28;20421;-63
2021/11/15 00:12:03;;;;;;;24.52;14.27;;;;;;;;;;5028839;28;20048;-64
2021/11/15 00:14:48;;;;;;;23.42;15.27;;;;;;;;;;5047972;28;20025;-65
2021/11/15 00:17:33;;;;;;;24.17;15.35;;;;;;;;;;5042211;28;20036;-64
2021/11/15 00:20:19;;;;;;;24.15;15.20;;;;;;;;;;5035941;28;20040;-67
2021/11/15 00:23:04;;;;;;;24.65;15.43;;;;;;;;;;5049044;28;20120;-65
2021/11/15 00:25:50;;;;;;;24.55;14.38;;;;;;;;;;5053580;28;20290;-65
2021/11/15 00:28:35;;;;;;;23.25;14.55;;;;;;;;;;5050032;28;20479;-66
2021/11/15 00:31:22;;;;;;;23.00;14.52;;;;;;;;;;5050743;28;20040;-65
2021/11/15 00:34:07;;;;;;;26.52;15.48;;;;;;;;;;5067750;28;20064;-64
2021/11/15 00:36:52;;;;;;;23.73;15.27;;;;;;;;;;5067472;28;20360;-66
2021/11/15 00:39:38;;;;;;;22.98;15.65;;;;;;;;;;5042267;28;20025;-72
2021/11/15 00:42:23;;;;;;;22.33;13.75;;;;;;;;;;5053231;28;20068;-64
2021/11/15 00:45:09;;;;;;;22.92;13.40;;;;;;;;;;5065916;28;20086;-64
2021/11/15 00:47:55;;;;;;;25.20;14.05;;;;;;;;;;5042134;28;20543;-64
2021/11/15 00:50:40;;;;;;;24.00;13.55;;;;;;;;;;5066026;28;20031;-64
2021/11/15 00:53:26;;;;;;;23.05;12.82;;;;;;;;;;5039833;28;20125;-64
2021/11/15 00:56:11;;;;;;;23.95;13.93;;;;;;;;;;5036639;28;20025;-69
2021/11/15 00:58:56;;;;;;;20.40;13.90;;;;;;;;;;5044063;28;20028;-66
2021/11/15 01:01:41;;;;;;;24.20;14.02;;;;;;;;;;5044031;28;20396;-65
2021/11/15 01:04:27;;;;;;;29.77;14.40;;;;;;;;;;5057108;28;20041;-67
2021/11/15 01:07:12;;;;;;;19.77;12.88;;;;;;;;;;5069773;28;20472;-70
2021/11/15 01:09:57;;;;;;;20.92;12.82;;;;;;;;;;5055461;28;20131;-70
2021/11/15 01:12:43;;;;;;;20.33;12.35;;;;;;;;;;5057382;28;20465;-68
2021/11/15 01:15:29;;;;;;;24.10;14.27;;;;;;;;;;5051411;28;20482;-62
2021/11/15 01:18:15;;;;;;;21.60;13.32;;;;;;;;;;5044678;28;20037;-64
2021/11/15 01:21:00;;;;;;;24.70;14.18;;;;;;;;;;5050908;28;20073;-63
2021/11/15 01:23:45;;;;;;;20.58;12.88;;;;;;;;;;5047911;28;20167;-62
2021/11/15 01:26:31;;;;;;;18.90;12.18;;;;;;;;;;5048247;28;20054;-65
2021/11/15 01:29:16;;;;;;;22.83;13.13;;;;;;;;;;5056293;28;20379;-65
2021/11/15 01:32:02;;;;;;;20.77;13.15;;;;;;;;;;5067519;28;20029;-63
2021/11/15 01:34:47;;;;;;;20.92;14.45;;;;;;;;;;5048184;28;20494;-68
2021/11/15 01:37:32;;;;;;;18.83;12.13;;;;;;;;;;5048365;28;20035;-65
2021/11/15 01:40:18;;;;;;;21.58;13.18;;;;;;;;;;5056279;28;20036;-62
2021/11/15 01:43:04;;;;;;;20.33;12.57;;;;;;;;;;5054880;28;20059;-63
2021/11/15 01:45:50;;;;;;;19.75;11.98;;;;;;;;;;5056893;28;20024;-63
2021/11/15 01:48:35;;;;;;;19.23;12.40;;;;;;;;;;5055653;28;20085;-61
2021/11/15 01:51:20;;;;;;;18.35;11.80;;;;;;;;;;5052899;28;20521;-72
2021/11/15 01:54:05;;;;;;;18.02;11.50;;;;;;;;;;5044934;28;20037;-64
2021/11/15 01:56:51;;;;;;;15.30;10.13;;;;;;;;;;5055766;28;20032;-71
2021/11/15 01:59:36;;;;;;;20.30;11.32;;;;;;;;;;5056054;28;20039;-70
2021/11/15 02:02:26;;;;;;;14.57;10.10;;;;;;;;;;5066250;28;20052;-72
2021/11/15 02:05:11;;;;;;;15.77;10.07;;;;;;;;;;5042356;28;20387;-71
2021/11/15 02:07:56;;;;;;;17.30;10.23;;;;;;;;;;5045600;28;20033;-71
2021/11/15 02:10:42;;;;;;;17.55;9.82;;;;;;;;;;5056204;28;20116;-67
2021/11/15 02:13:27;;;;;;;16.92;9.75;;;;;;;;;;5054601;28;20028;-70
2021/11/15 02:16:13;;;;;;;18.13;10.00;;;;;;;;;;5039798;28;20561;-70
2021/11/15 02:18:59;;;;;;;15.90;9.70;;;;;;;;;;5040723;28;20048;-71
2021/11/15 02:21:44;;;;;;;16.65;10.20;;;;;;;;;;5039362;28;20071;-74
2021/11/15 02:24:31;;;;;;;16.02;9.80;;;;;;;;;;5054915;28;20466;-73
2021/11/15 02:27:16;;;;;;;16.42;9.52;;;;;;;;;;5056025;28;20032;-71
2021/11/15 02:30:03;;;;;;;14.85;9.18;;;;;;;;;;5054851;28;20128;-62
2021/11/15 02:32:48;;;;;;;16.75;9.55;;;;;;;;;;5053553;28;20035;-63
2021/11/15 02:35:34;;;;;;;17.60;9.23;;;;;;;;;;5033546;28;20176;-64
2021/11/15 02:38:19;;;;;;;15.32;9.80;;;;;;;;;;5055118;28;20376;-66
2021/11/15 02:41:04;;;;;;;14.27;9.73;;;;;;;;;;5067746;28;20077;-63
2021/11/15 02:43:50;;;;;;;17.05;9.65;;;;;;;;;;5047649;28;20037;-62
2021/11/15 02:46:36;;;;;;;14.27;8.80;;;;;;;;;;5053967;28;20467;-68
2021/11/15 02:49:21;;;;;;;14.82;9.85;;;;;;;;;;5054620;28;20040;-68
2021/11/15 02:52:08;;;;;;;13.88;8.93;;;;;;;;;;5053202;28;20429;-67
2021/11/15 02:54:57;;;;;;;14.55;8.95;;;;;;;;;;5052531;28;20055;-68
2021/11/15 02:57:43;;;;;;;14.55;9.27;;;;;;;;;;5055566;28;20064;-67
2021/11/15 03:00:37;;;;;;;14.27;9.25;;;;;;;;;;5068244;28;20028;-68
2021/11/15 03:03:23;;;;;;;14.55;8.90;;;;;;;;;;5054562;28;20052;-67
2021/11/15 03:06:09;;;;;;;14.93;8.95;;;;;;;;;;5046678;28;20488;-66
2021/11/15 03:08:54;;;;;;;16.05;9.95;;;;;;;;;;5053442;28;20064;-62
2021/11/15 03:11:39;;;;;;;14.35;8.85;;;;;;;;;;5052657;28;20048;-62
2021/11/15 03:14:25;;;;;;;16.08;9.98;;;;;;;;;;5048737;28;20380;-64
2021/11/15 03:17:10;;;;;;;15.50;9.43;;;;;;;;;;5039630;28;20090;-65
2021/11/15 03:19:55;;;;;;;16.23;9.98;;;;;;;;;;5068231;28;20441;-64
2021/11/15 03:22:40;;;;;;;13.45;9.30;;;;;;;;;;5058373;28;20024;-63
2021/11/15 03:25:27;;;;;;;15.57;10.18;;;;;;;;;;5065937;28;20039;-62
2021/11/15 03:28:13;;;;;;;17.80;10.65;;;;;;;;;;5050626;28;20395;-61
2021/11/15 03:31:00;;;;;;;19.75;9.40;;;;;;;;;;5054669;28;20100;-64
2021/11/15 03:33:47;;;;;;;17.13;9.90;;;;;;;;;;5051067;28;20413;-60
2021/11/15 03:36:33;;;;;;;14.50;9.18;;;;;;;;;;5052919;28;20355;-62
2021/11/15 03:39:18;;;;;;;14.80;9.35;;;;;;;;;;5053955;28;20036;-60
2021/11/15 03:42:03;;;;;;;16.63;10.02;;;;;;;;;;5040826;28;20418;-60
2021/11/15 03:44:48;;;;;;;16.23;10.25;;;;;;;;;;5049411;28;20056;-64
2021/11/15 03:47:34;;;;;;;20.83;12.57;;;;;;;;;;5053660;28;20199;-65
2021/11/15 03:50:19;;;;;;;18.65;10.90;;;;;;;;;;5052732;28;20390;-64
2021/11/15 03:53:05;;;;;;;21.25;12.18;;;;;;;;;;5053248;28;20033;-64
2021/11/15 03:55:51;;;;;;;16.23;10.30;;;;;;;;;;5034552;28;20028;-63
2021/11/15 03:58:37;;;;;;;19.08;11.48;;;;;;;;;;5052849;28;20112;-64
2021/11/15 04:01:26;;;;;;;25.60;13.63;;;;;;;;;;5044625;28;20119;-67
2021/11/15 04:04:17;;;;;;;23.35;14.18;;;;;;;;;;5048603;28;20483;-73
2021/11/15 04:07:02;;;;;;;22.98;14.40;;;;;;;;;;5054355;28;20094;-74
2021/11/15 04:09:47;;;;;;;21.90;13.55;;;;;;;;;;5053434;28;20063;-72
2021/11/15 04:12:33;;;;;;;20.00;13.18;;;;;;;;;;5046224;28;20565;-71
2021/11/15 04:15:18;;;;;;;19.05;11.45;;;;;;;;;;5066162;28;20051;-71
2021/11/15 04:18:05;;;;;;;19.05;11.13;;;;;;;;;;5052541;28;20029;-62
2021/11/15 04:20:51;;;;;;;21.15;11.68;;;;;;;;;;5048106;28;20482;-69
2021/11/15 04:23:36;;;;;;;19.55;10.85;;;;;;;;;;5047005;28;20050;-72
2021/11/15 04:26:22;;;;;;;17.92;10.35;;;;;;;;;;5053416;28;20078;-71
2021/11/15 04:29:07;;;;;;;17.15;9.85;;;;;;;;;;5049981;28;20387;-70
2021/11/15 04:31:53;;;;;;;15.65;9.02;;;;;;;;;;5041074;28;20178;-70
2021/11/15 04:34:39;;;;;;;15.63;9.20;;;;;;;;;;5054923;28;20053;-71
2021/11/15 04:37:25;;;;;;;16.48;10.13;;;;;;;;;;5053690;28;20028;-68
2021/11/15 04:40:10;;;;;;;16.48;10.40;;;;;;;;;;5052142;28;20486;-68
2021/11/15 04:42:56;;;;;;;17.02;10.35;;;;;;;;;;5037235;28;20114;-68
2021/11/15 04:45:41;;;;;;;16.60;10.05;;;;;;;;;;5047180;28;20036;-67
2021/11/15 04:48:27;;;;;;;14.60;9.10;;;;;;;;;;5045075;28;20479;-67
2021/11/15 04:51:12;;;;;;;19.92;10.00;;;;;;;;;;5038517;28;20467;-69
2021/11/15 04:53:58;;;;;;;18.02;10.18;;;;;;;;;;5053362;28;20058;-69
2021/11/15 04:56:43;;;;;;;18.65;10.90;;;;;;;;;;5052494;28;20052;-68
2021/11/15 04:59:28;;;;;;;18.35;11.07;;;;;;;;;;5040308;28;20063;-63
2021/11/15 05:02:14;;;;;;;18.70;11.02;;;;;;;;;;5067541;28;20071;-63
2021/11/15 05:05:00;;;;;;;16.95;10.63;;;;;;;;;;5060967;28;20432;-63
2021/11/15 05:07:49;;;;;;;17.02;10.20;;;;;;;;;;5028441;28;20044;-62
2021/11/15 05:10:34;;;;;;;18.85;11.38;;;;;;;;;;5051509;28;20046;-62
2021/11/15 05:13:19;;;;;;;15.55;10.52;;;;;;;;;;5048365;28;20036;-71
2021/11/15 05:16:05;;;;;;;16.85;10.95;;;;;;;;;;5038050;28;20117;-66
2021/11/15 05:18:50;;;;;;;15.50;10.57;;;;;;;;;;5053480;28;20033;-68
2021/11/15 05:21:35;;;;;;;18.65;10.10;;;;;;;;;;5049597;28;20371;-66
2021/11/15 05:24:21;;;;;;;16.90;10.63;;;;;;;;;;5056344;28;20032;-66
2021/11/15 05:27:06;;;;;;;18.85;11.32;;;;;;;;;;5052005;28;20361;-66
2021/11/15 05:29:51;;;;;;;15.38;9.75;;;;;;;;;;5053503;28;20064;-67
2021/11/15 05:32:37;;;;;;;17.42;10.45;;;;;;;;;;5051563;28;20085;-61
2021/11/15 05:35:23;;;;;;;18.88;11.43;;;;;;;;;;5045286;28;20028;-62
2021/11/15 05:38:08;;;;;;;19.65;11.43;;;;;;;;;;5051467;28;20430;-64
2021/11/15 05:40:54;;;;;;;16.98;10.95;;;;;;;;;;5063662;28;20550;-61
2021/11/15 05:43:39;;;;;;;17.92;10.07;;;;;;;;;;5055230;28;20043;-61
2021/11/15 05:46:24;;;;;;;16.77;10.50;;;;;;;;;;5069432;28;20471;-60
2021/11/15 05:49:09;;;;;;;18.60;11.05;;;;;;;;;;5056473;28;20070;-60
2021/11/15 05:51:55;;;;;;;17.70;9.70;;;;;;;;;;5055702;28;20036;-62
2021/11/15 05:54:40;;;;;;;16.88;10.50;;;;;;;;;;5047367;28;20515;-65
2021/11/15 05:57:26;;;;;;;15.50;9.35;;;;;;;;;;5042774;28;20070;-65
2021/11/15 06:00:13;;;;;;;16.55;10.30;;;;;;;;;;5067585;28;20503;-69
2021/11/15 06:02:59;;;;;;;15.82;10.00;;;;;;;;;;5052402;28;20029;-70
2021/11/15 06:05:44;;;;;;;15.93;10.43;;;;;;;;;;5046695;28;20199;-66
2021/11/15 06:08:29;;;;;;;16.55;10.32;;;;;;;;;;5044006;28;20365;-64
2021/11/15 06:11:14;;;;;;;19.55;11.40;;;;;;;;;;5051268;28;20033;-64
2021/11/15 06:14:00;;;;;;;17.33;11.35;;;;;;;;;;5054270;28;20024;-72
2021/11/15 06:16:45;;;;;;;22.85;11.60;;;;;;;;;;5063981;28;20070;-71
2021/11/15 06:19:30;;;;;;;18.92;11.57;;;;;;;;;;5054379;28;20491;-72
2021/11/15 06:22:15;;;;;;;18.63;11.45;;;;;;;;;;5031947;28;20033;-72
2021/11/15 06:25:01;;;;;;;18.55;11.20;;;;;;;;;;5053423;28;20454;-71
2021/11/15 06:27:46;;;;;;;18.35;11.95;;;;;;;;;;5055300;28;20085;-65
2021/11/15 06:30:31;;;;;;;16.83;10.60;;;;;;;;;;5048177;28;20120;-63
2021/11/15 06:33:18;;;;;;;16.88;10.95;;;;;;;;;;5065375;28;20032;-62
2021/11/15 06:36:03;;;;;;;19.63;11.60;;;;;;;;;;5055045;28;20131;-63
2021/11/15 06:38:53;;;;;;;20.83;12.10;;;;;;;;;;5051632;28;20040;-64
2021/11/15 06:41:39;;;;;;;20.63;13.15;;;;;;;;;;5053680;28;20039;-62
2021/11/15 06:44:26;;;;;;;19.58;11.60;;;;;;;;;;5054328;28;20040;-64
2021/11/15 06:47:11;;;;;;;20.73;11.35;;;;;;;;;;5067530;28;20123;-65
2021/11/15 06:49:56;;;;;;;18.70;11.73;;;;;;;;;;5053144;28;20059;-68
2021/11/15 06:52:41;;;;;;;18.05;11.55;;;;;;;;;;5048258;28;20228;-70
2021/11/15 06:55:27;;;;;;;19.27;11.50;;;;;;;;;;5053206;28;20020;-68
2021/11/15 06:58:12;;;;;;;16.73;11.25;;;;;;;;;;5068442;28;20239;-66
2021/11/15 07:00:58;;;;;;;18.05;11.30;;;;;;;;;;5054660;28;20090;-69
2021/11/15 07:03:43;;;;;;;20.75;11.07;;;;;;;;;;5046364;28;20028;-68
2021/11/15 07:06:28;;;;;;;19.90;12.23;;;;;;;;;;5043299;28;20102;-62
2021/11/15 07:09:14;;;;;;;19.13;13.25;;;;;;;;;;5057042;28;20528;-67
2021/11/15 07:11:59;;;;;;;19.20;12.23;;;;;;;;;;5069459;28;20036;-68
2021/11/15 07:14:44;;;;;;;21.02;12.73;;;;;;;;;;5055286;28;20093;-68
2021/11/15 07:17:30;;;;;;;20.90;11.73;;;;;;;;;;5047115;28;20032;-68
2021/11/15 07:20:15;;;;;;;19.52;11.45;;;;;;;;;;5051469;28;20024;-66
2021/11/15 07:23:01;;;;;;;18.15;10.63;;;;;;;;;;5067352;28;20033;-60
2021/11/15 07:25:46;;;;;;;18.55;10.93;;;;;;;;;;5052061;28;20060;-61
2021/11/15 07:28:32;;;;;;;24.20;14.10;;;;;;;;;;5052545;28;20040;-61
2021/11/15 07:31:17;;;;;;;19.17;11.70;;;;;;;;;;5063936;28;20094;-61
2021/11/15 07:34:02;;;;;;;21.27;11.98;;;;;;;;;;5040692;28;20384;-62
2021/11/15 07:36:48;;;;;;;20.45;13.07;;;;;;;;;;5048525;28;20029;-62
2021/11/15 07:39:41;;;;;;;20.58;12.10;;;;;;;;;;5062015;28;20082;-61
2021/11/15 07:42:27;;;;;;;19.85;11.80;;;;;;;;;;5039686;28;20089;-67
2021/11/15 07:45:12;;;;;;;21.42;11.27;;;;;;;;;;5063601;28;20507;-62
2021/11/15 07:47:57;;;;;;;20.77;12.25;;;;;;;;;;5039070;28;20040;-60
2021/11/15 07:50:44;;;;;;;22.08;12.95;;;;;;;;;;5054973;28;20028;-60
2021/11/15 07:53:30;;;;;;;20.15;12.10;;;;;;;;;;5046493;28;20029;-64
2021/11/15 07:56:15;;;;;;;21.55;11.88;;;;;;;;;;5053869;28;20032;-59
2021/11/15 07:59:01;;;;;;;19.98;11.60;;;;;;;;;;5029871;28;20040;-66
2021/11/15 08:01:46;;;;;;;22.27;12.00;;;;;;;;;;5048431;28;20032;-60
2021/11/15 08:04:32;;;;;;;22.02;12.88;;;;;;;;;;5064117;28;20078;-76
2021/11/15 08:07:17;;;;;;;19.73;12.73;;;;;;;;;;5048403;28;20074;-76
2021/11/15 08:10:04;;;;;;;22.30;12.70;;;;;;;;;;5048377;28;20055;-74
2021/11/15 08:12:51;;;;;;;20.50;12.55;;;;;;;;;;5046913;28;20426;-72
2021/11/15 08:15:36;;;;;;;22.63;13.52;;;;;;;;;;5063577;28;20028;-74
2021/11/15 08:18:21;;;;;;;24.80;12.70;;;;;;;;;;5044965;28;20033;-68
2021/11/15 08:21:12;;;;;;;20.27;13.20;;;;;;;;;;5040636;28;20063;-75
2021/11/15 08:24:16;;;;;;;23.25;12.60;;;;;;;;;;5053266;28;20036;-74
2021/11/15 08:27:03;;;;;;;20.10;11.70;;;;;;;;;;5043435;28;20046;-74
2021/11/15 08:29:48;;;;;;;19.65;11.77;;;;;;;;;;5053458;28;20085;-75
2021/11/15 08:32:33;;;;;;;19.77;12.68;;;;;;;;;;5053323;28;20060;-75
2021/11/15 08:35:20;;;;;;;19.08;12.88;;;;;;;;;;5051114;28;20131;-74
2021/11/15 08:38:23;;;;;;;18.40;12.10;;;;;;;;;;5047704;28;20037;-73
2021/11/15 08:41:09;;;;;;;17.92;11.45;;;;;;;;;;5051273;28;20491;-60
2021/11/15 08:43:56;;;;;;;19.98;12.57;;;;;;;;;;5036572;28;20029;-62
2021/11/15 08:46:43;;;;;;;21.75;12.32;;;;;;;;;;5050150;28;20039;-60
2021/11/15 08:49:30;;;;;;;19.55;12.05;;;;;;;;;;5066700;28;20032;-62
2021/11/15 08:52:15;;;;;;;22.23;12.55;;;;;;;;;;5053323;28;20053;-59
2021/11/15 08:55:00;;;;;;;22.25;12.30;;;;;;;;;;5048376;28;20045;-67
2021/11/15 08:57:46;;;;;;;20.00;12.15;;;;;;;;;;5052501;28;20044;-70
2021/11/15 09:00:31;;;;;;;23.65;13.23;;;;;;;;;;5033135;28;20029;-69
2021/11/15 09:03:17;;;;;;;23.33;13.20;;;;;;;;;;5054214;28;20032;-68
2021/11/15 09:06:03;;;;;;;21.95;12.68;;;;;;;;;;5048338;28;20434;-67
2021/11/15 09:08:49;;;;;;;19.85;12.73;;;;;;;;;;5052976;28;20043;-68
2021/11/15 09:11:35;;;;;;;21.95;12.38;;;;;;;;;;5052373;28;20524;-68
2021/11/15 09:14:21;;;;;;;19.95;12.68;;;;;;;;;;5067799;28;20070;-61
2021/11/15 09:17:06;;;;;;;23.17;12.02;;;;;;;;;;5065396;28;20033;-59
2021/11/15 09:19:52;;;;;;;20.92;12.35;;;;;;;;;;5055429;28;20016;-59
2021/11/15 09:22:38;;;;;;;19.77;12.00;;;;;;;;;;5047082;28;20045;-59
2021/11/15 09:25:23;;;;;;;20.15;12.00;;;;;;;;;;5052849;28;20021;-62
2021/11/15 09:28:09;;;;;;;20.90;13.07;;;;;;;;;;5057127;28;20024;-60
2021/11/15 09:30:55;;;;;;;19.00;11.43;;;;;;;;;;5056521;28;20074;-60
2021/11/15 09:33:40;;;;;;;22.70;13.27;;;;;;;;;;5045516;28;20037;-62
2021/11/15 09:36:25;;;;;;;19.95;12.15;;;;;;;;;;5048440;28;20264;-59
2021/11/15 09:39:11;;;;;;;24.52;13.95;;;;;;;;;;5056223;28;20086;-62
2021/11/15 09:41:58;;;;;;;19.10;12.27;;;;;;;;;;5049734;28;20035;-61
2021/11/15 09:44:43;;;;;;;17.70;11.80;;;;;;;;;;5043181;28;20518;-60
2021/11/15 09:47:29;;;;;;;20.02;12.38;;;;;;;;;;5051355;28;20372;-59
2021/11/15 09:50:17;;;;;;;22.25;13.07;;;;;;;;;;5054951;28;20426;-62
2021/11/15 09:53:03;;;;;;;18.45;11.25;;;;;;;;;;5049294;28;20352;-63
2021/11/15 09:55:49;;;;;;;20.63;12.73;;;;;;;;;;5052055;28;20086;-63
2021/11/15 09:58:35;;;;;;;20.63;12.63;;;;;;;;;;5048213;28;20032;-64
2021/11/15 10:01:21;;;;;;;19.02;12.32;;;;;;;;;;5055418;28;20035;-63
2021/11/15 10:04:06;;;;;;;19.25;11.57;;;;;;;;;;5044723;28;20037;-63
2021/11/15 10:06:53;;;;;;;19.10;12.20;;;;;;;;;;5053721;28;20356;-63
2021/11/15 10:09:42;;;;;;;19.30;12.80;;;;;;;;;;5052505;28;20036;-64
2021/11/15 10:12:27;;;;;;;19.45;13.23;;;;;;;;;;5051676;28;20108;-75
2021/11/15 10:15:12;;;;;;;20.13;11.77;;;;;;;;;;5055825;28;20115;-74
2021/11/15 10:17:58;;;;;;;16.80;11.43;;;;;;;;;;5038655;28;20021;-76
2021/11/15 10:20:47;;;;;;;18.08;11.05;;;;;;;;;;5070690;28;20032;-74
2021/11/15 10:23:40;;;;;;;20.75;12.10;;;;;;;;;;5063539;28;20517;-73
2021/11/15 10:26:41;;;;;;;19.40;11.50;;;;;;;;;;5038983;28;20052;-67
2021/11/15 10:29:34;;;;;;;18.60;11.23;;;;;;;;;;5054563;28;20110;-74
2021/11/15 10:32:22;;;;;;;18.83;11.57;;;;;;;;;;5056612;28;20020;-64
2021/11/15 10:35:08;;;;;;;19.55;12.85;;;;;;;;;;5048891;28;20032;-61
2021/11/15 10:37:53;;;;;;;23.88;12.23;;;;;;;;;;5054655;28;20581;-60
2021/11/15 10:40:38;;;;;;;22.13;13.35;;;;;;;;;;5037640;28;20461;-62
2021/11/15 10:43:30;;;;;;;16.58;10.82;;;;;;;;;;5053788;28;20506;-61
2021/11/15 10:46:48;;;;;;;26.95;20.40;;;;;;;;;;5056457;28;20107;-61
2021/11/15 10:49:34;;;;;;;17.92;11.90;;;;;;;;;;5019688;28;20131;-60
2021/11/15 10:52:19;;;;;;;19.00;11.93;;;;;;;;;;5043910;28;20032;-61
2021/11/15 10:55:07;;;;;;;19.33;12.40;;;;;;;;;;5048985;28;20565;-63
2021/11/15 10:57:52;;;;;;;23.05;13.27;;;;;;;;;;5046320;28;20024;-64
2021/11/15 11:00:41;;;;;;;20.33;12.80;;;;;;;;;;5039958;28;20032;-61
2021/11/15 11:03:27;;;;;;;20.42;12.32;;;;;;;;;;5042399;28;20066;-60
2021/11/15 11:06:16;;;;;;;18.58;12.93;;;;;;;;;;5045616;28;20082;-64
2021/11/15 11:09:01;;;;;;;24.08;13.43;;;;;;;;;;5054205;28;20044;-63
2021/11/15 11:11:47;;;;;;;18.80;12.50;;;;;;;;;;5041950;28;20032;-63
2021/11/15 11:14:32;;;;;;;22.27;14.00;;;;;;;;;;5043258;28;20029;-60
2021/11/15 11:17:17;;;;;;;21.38;13.50;;;;;;;;;;5055601;28;20063;-60
2021/11/15 11:20:31;;;;;;;22.63;13.90;;;;;;;;;;5038893;28;20120;-60
2021/11/15 11:26:16;;;;;;;25.85;16.27;;;;;;;;;;5053988;28;20040;-61
2021/11/15 11:29:08;;;;;;;88.65;36.30;;;;;;;;;;5041461;28;20502;-61
2021/11/15 11:31:56;;;;;;;25.42;15.50;;;;;;;;;;5026184;28;20479;-63
2021/11/15 11:34:42;;;;;;;24.55;15.07;;;;;;;;;;5052216;28;20033;-64
2021/11/15 11:37:29;;;;;;;24.10;15.60;;;;;;;;;;5057022;28;20567;-61
2021/11/15 11:40:14;;;;;;;23.50;15.95;;;;;;;;;;5040229;28;20074;-64
2021/11/15 11:43:00;;;;;;;26.77;16.23;;;;;;;;;;5055395;28;20044;-62
2021/11/15 11:45:45;;;;;;;21.30;14.63;;;;;;;;;;5053483;28;20029;-59
2021/11/15 11:48:31;;;;;;;19.52;13.20;;;;;;;;;;5047759;28;20031;-60
2021/11/15 11:51:17;;;;;;;24.45;15.45;;;;;;;;;;5052874;28;20031;-59
2021/11/15 11:54:14;;;;;;;22.13;14.63;;;;;;;;;;5042321;28;20157;-61
2021/11/15 11:57:04;;;;;;;21.70;15.15;;;;;;;;;;5035523;28;20028;-64
2021/11/15 11:59:49;;;;;;;35.35;25.13;;;;;;;;;;5068528;28;20044;-65
2021/11/15 12:02:35;;;;;;;48.35;31.60;;;;;;;;;;5048482;28;20043;-63
2021/11/15 12:05:30;;;;;;;26.95;17.23;;;;;;;;;;5054617;28;20054;-62
2021/11/15 12:08:15;;;;;;;23.15;15.93;;;;;;;;;;5053632;28;20036;-63
2021/11/15 12:11:02;;;;;;;25.52;16.10;;;;;;;;;;5041622;28;20036;-66
2021/11/15 12:13:47;;;;;;;22.67;15.93;;;;;;;;;;5053251;28;20039;-63
2021/11/15 12:16:51;;;;;;;24.42;15.95;;;;;;;;;;5050526;28;20037;-64
2021/11/15 12:19:49;;;;;;;23.77;14.85;;;;;;;;;;5054636;28;20058;-67
2021/11/15 12:22:42;;;;;;;21.92;14.35;;;;;;;;;;5064209;28;20115;-67
2021/11/15 12:25:28;;;;;;;24.05;14.52;;;;;;;;;;5054560;28;20087;-70
2021/11/15 12:28:25;;;;;;;25.50;15.98;;;;;;;;;;5049961;28;20472;-68
2021/11/15 12:31:11;;;;;;;25.65;15.15;;;;;;;;;;5049747;28;20131;-69
2021/11/15 12:34:02;;;;;;;25.40;15.65;;;;;;;;;;5053800;28;20067;-71
2021/11/15 12:36:51;;;;;;;23.20;15.82;;;;;;;;;;5048492;28;20138;-61
2021/11/15 12:39:41;;;;;;;23.30;15.20;;;;;;;;;;5042199;28;20032;-61
2021/11/15 12:42:30;;;;;;;22.02;14.18;;;;;;;;;;5046456;28;20033;-62
2021/11/15 12:45:17;;;;;;;25.35;16.00;;;;;;;;;;5054304;28;20029;-64
2021/11/15 12:48:02;;;;;;;23.73;16.02;;;;;;;;;;5066948;28;20029;-66
2021/11/15 12:50:51;;;;;;;24.85;16.23;;;;;;;;;;5053903;28;20637;-64
2021/11/15 12:53:48;;;;;;;23.85;14.63;;;;;;;;;;5048673;28;20033;-67
2021/11/15 12:56:38;;;;;;;24.13;15.80;;;;;;;;;;5053743;28;20170;-62
2021/11/15 12:59:23;;;;;;;29.05;16.45;;;;;;;;;;5057430;28;20079;-63
2021/11/15 13:02:09;;;;;;;23.55;15.50;;;;;;;;;;5054186;28;20459;-62
2021/11/15 13:04:55;;;;;;;25.20;16.00;;;;;;;;;;5057335;28;20721;-63
2021/11/15 13:07:41;;;;;;;25.60;16.02;;;;;;;;;;5054442;28;20072;-64
2021/11/15 13:10:26;;;;;;;24.80;15.43;;;;;;;;;;5044448;28;20107;-62
2021/11/15 13:13:13;;;;;;;27.10;16.45;;;;;;;;;;5051434;28;20459;-65
2021/11/15 13:15:58;;;;;;;28.13;17.38;;;;;;;;;;5070077;28;20029;-65
2021/11/15 13:18:44;;;;;;;31.35;16.70;;;;;;;;;;5043729;28;20037;-65
2021/11/15 13:21:29;;;;;;;29.10;17.33;;;;;;;;;;5055321;28;20386;-63
2021/11/15 13:24:16;;;;;;;26.60;16.95;;;;;;;;;;5049656;28;20060;-62
2021/11/15 13:27:02;;;;;;;24.98;16.73;;;;;;;;;;5056673;28;20529;-64
2021/11/15 13:29:49;;;;;;;24.45;16.02;;;;;;;;;;5036086;28;20025;-64
2021/11/15 13:32:34;;;;;;;23.75;15.25;;;;;;;;;;5048811;28;20141;-73
2021/11/15 13:35:20;;;;;;;23.13;15.63;;;;;;;;;;5037222;28;20021;-59
2021/11/15 13:38:05;;;;;;;25.77;16.52;;;;;;;;;;5048893;28;20119;-63
2021/11/15 13:40:50;;;;;;;20.85;14.18;;;;;;;;;;5056786;28;20029;-61
2021/11/15 13:43:36;;;;;;;25.27;15.68;;;;;;;;;;5057495;28;20455;-60
2021/11/15 13:46:21;;;;;;;21.73;14.63;;;;;;;;;;5054872;28;20024;-61
2021/11/15 13:49:08;;;;;;;24.35;16.15;;;;;;;;;;5056930;28;20466;-60
2021/11/15 13:51:53;;;;;;;22.50;15.40;;;;;;;;;;5043905;28;20036;-60
2021/11/15 13:54:42;;;;;;;24.27;16.85;;;;;;;;;;5051403;28;20458;-58
2021/11/15 13:57:29;;;;;;;23.60;16.30;;;;;;;;;;5054564;28;20386;-59
2021/11/15 14:00:14;;;;;;;23.15;15.50;;;;;;;;;;5041999;28;20036;-59
2021/11/15 14:03:00;;;;;;;26.15;15.02;;;;;;;;;;5047966;28;20086;-62
2021/11/15 14:05:45;;;;;;;22.42;15.18;;;;;;;;;;5055402;28;20028;-62
2021/11/15 14:08:32;;;;;;;22.23;16.08;;;;;;;;;;5056509;28;20038;-63
2021/11/15 14:11:18;;;;;;;47.80;33.45;;;;;;;;;;5050211;28;20036;-61
2021/11/15 14:14:04;;;;;;;25.30;16.38;;;;;;;;;;5056753;28;20407;-60
2021/11/15 14:16:49;;;;;;;23.77;16.08;;;;;;;;;;5047644;28;20425;-59
2021/11/15 14:19:34;;;;;;;23.67;17.02;;;;;;;;;;5070880;28;20024;-59
2021/11/15 14:22:19;;;;;;;27.15;16.98;;;;;;;;;;5055881;28;20090;-59
2021/11/15 14:25:07;;;;;;;25.15;17.38;;;;;;;;;;5044184;28;20067;-61
2021/11/15 14:27:53;;;;;;;28.27;18.83;;;;;;;;;;5064204;28;20110;-59
2021/11/15 14:30:39;;;;;;;26.70;17.77;;;;;;;;;;5045622;28;20067;-63
2021/11/15 14:33:24;;;;;;;26.15;17.63;;;;;;;;;;5053530;28;20028;-62
2021/11/15 14:36:09;;;;;;;24.90;17.52;;;;;;;;;;5049280;28;20032;-64
2021/11/15 14:38:55;;;;;;;26.23;18.50;;;;;;;;;;5055758;28;20042;-61
2021/11/15 14:41:40;;;;;;;27.40;16.55;;;;;;;;;;5055949;28;20035;-66
2021/11/15 14:44:25;;;;;;;34.03;23.92;;;;;;;;;;5039688;28;20029;-68
2021/11/15 14:47:13;;;;;;;32.38;21.70;;;;;;;;;;5037300;28;20045;-62
2021/11/15 14:49:58;;;;;;;25.92;17.10;;;;;;;;;;5051737;28;20087;-59
2021/11/15 14:52:43;;;;;;;25.60;16.80;;;;;;;;;;5053035;28;20101;-63
2021/11/15 14:55:29;;;;;;;22.85;15.38;;;;;;;;;;5046815;28;20030;-61
2021/11/15 14:58:15;;;;;;;22.27;15.18;;;;;;;;;;5039854;28;20070;-64
2021/11/15 15:01:00;;;;;;;21.25;14.27;;;;;;;;;;5040826;28;20565;-59
2021/11/15 15:03:45;;;;;;;21.17;14.80;;;;;;;;;;5052140;28;20028;-74
2021/11/15 15:06:31;;;;;;;25.05;15.63;;;;;;;;;;5055647;28;20074;-64
2021/11/15 15:09:17;;;;;;;25.42;15.82;;;;;;;;;;5029070;28;20032;-63
2021/11/15 15:12:03;;;;;;;24.75;15.05;;;;;;;;;;5054060;28;20029;-67
2021/11/15 15:14:49;;;;;;;21.70;14.70;;;;;;;;;;5061669;28;20600;-63
2021/11/15 15:17:35;;;;;;;23.65;15.73;;;;;;;;;;5054072;28;20866;-63
2021/11/15 15:20:23;;;;;;;21.25;14.70;;;;;;;;;;5067915;28;20040;-65
2021/11/15 15:23:09;;;;;;;25.05;16.52;;;;;;;;;;5045003;28;20067;-61
2021/11/15 15:25:54;;;;;;;23.58;15.60;;;;;;;;;;5051777;28;20123;-63
2021/11/15 15:28:40;;;;;;;22.65;15.30;;;;;;;;;;5044004;28;20034;-63
2021/11/15 15:31:25;;;;;;;23.45;15.73;;;;;;;;;;5052498;28;20032;-63
2021/11/15 15:34:11;;;;;;;24.35;14.93;;;;;;;;;;5053819;28;20560;-63
2021/11/15 15:36:56;;;;;;;21.35;14.95;;;;;;;;;;5062349;28;20028;-66
2021/11/15 15:39:42;;;;;;;22.60;15.38;;;;;;;;;;5053834;28;20031;-64
2021/11/15 15:42:27;;;;;;;21.83;15.10;;;;;;;;;;5055042;28;20040;-62
2021/11/15 15:45:13;;;;;;;21.52;15.77;;;;;;;;;;5053519;28;20085;-62
2021/11/15 15:48:00;;;;;;;20.38;13.93;;;;;;;;;;5048815;28;20036;-61
2021/11/15 15:50:49;;;;;;;23.30;15.82;;;;;;;;;;5054018;28;20056;-60
2021/11/15 15:53:35;;;;;;;22.85;15.05;;;;;;;;;;5054995;28;20032;-61
2021/11/15 15:56:21;;;;;;;23.55;14.48;;;;;;;;;;5045590;28;20040;-60
2021/11/15 15:59:07;;;;;;;24.30;15.80;;;;;;;;;;5055030;28;20036;-58
2021/11/15 16:01:53;;;;;;;25.25;15.23;;;;;;;;;;5053357;28;20490;-64
2021/11/15 16:05:11;;;;;;;21.95;14.45;;;;;;;;;;5054710;28;20043;-64
2021/11/15 16:08:06;;;;;;;29.00;17.67;;;;;;;;;;5044452;28;20024;-62
2021/11/15 16:19:38;;;;;;;25.75;17.85;;;;;;;;;;5054702;28;20378;-63
2021/11/15 16:22:23;;;;;;;23.73;16.33;;;;;;;;;;5049289;28;20071;-60